createdAt,value
2018-03-19T00:00:54.687Z,99571.45
2018-03-19T00:03:22.142Z,99574.85
2018-03-19T00:05:49.624Z,99563.58
2018-03-19T00:08:17.094Z,99572.81
2018-03-19T00:10:44.634Z,99571.36
2018-03-19T00:13:12.089Z,99572.40
2018-03-19T00:15:39.571Z,99566.66
2018-03-19T00:18:07.039Z,99564.70
2018-03-19T00:20:34.507Z,99564.53
2018-03-19T00:23:02.000Z,99566.48
2018-03-19T00:25:29.480Z,99558.17
2018-03-19T00:27:56.976Z,99557.05
2018-03-19T00:30:24.442Z,99558.88
2018-03-19T00:32:51.926Z,99564.36
2018-03-19T00:35:19.384Z,99561.70
2018-03-19T00:37:46.871Z,99557.26
2018-03-19T00:40:14.328Z,99563.16
2018-03-19T00:42:41.807Z,99554.39
2018-03-19T00:45:09.336Z,99561.09
2018-03-19T00:47:36.822Z,99555.73
2018-03-19T00:50:04.274Z,99558.55
2018-03-19T00:52:31.732Z,99563.49
2018-03-19T00:54:59.242Z,99561.48
2018-03-19T00:57:26.712Z,99563.45
2018-03-19T00:59:54.199Z,99554.00
2018-03-19T01:02:21.660Z,99564.09
2018-03-19T01:04:49.138Z,99557.31
2018-03-19T01:07:16.595Z,99553.48
2018-03-19T01:09:44.102Z,99553.16
2018-03-19T01:12:11.569Z,99554.78
2018-03-19T01:14:39.043Z,99555.06
2018-03-19T01:17:06.527Z,99558.70
2018-03-19T01:19:34.015Z,99546.25
2018-03-19T01:22:01.468Z,99552.91
2018-03-19T01:24:28.955Z,99553.83
2018-03-19T01:26:56.411Z,99553.83
2018-03-19T01:29:23.904Z,99546.80
2018-03-19T01:31:51.363Z,99553.38
2018-03-19T01:34:18.814Z,99547.83
2018-03-19T01:36:46.290Z,99551.71
2018-03-19T01:39:13.764Z,99548.47
2018-03-19T01:41:41.256Z,99549.10
2018-03-19T01:44:08.706Z,99551.47
2018-03-19T01:46:36.211Z,99545.73
2018-03-19T01:49:03.659Z,99543.87
2018-03-19T01:51:31.138Z,99548.45
2018-03-19T01:53:58.600Z,99548.52
2018-03-19T01:56:26.091Z,99552.77
2018-03-19T01:58:53.553Z,99550.89
2018-03-19T02:01:21.041Z,99539.96
2018-03-19T02:03:48.495Z,99544.62
2018-03-19T02:06:15.983Z,99539.42
2018-03-19T02:08:43.452Z,99547.86
2018-03-19T02:11:10.925Z,99539.59
2018-03-19T02:13:38.371Z,99538.05
2018-03-19T02:16:05.864Z,99534.77
2018-03-19T02:18:33.339Z,99533.02
2018-03-19T02:21:00.832Z,99531.94
2018-03-19T02:23:28.294Z,99530.61
2018-03-19T02:25:55.755Z,99532.52
2018-03-19T02:28:23.235Z,99540.80
2018-03-19T02:30:50.691Z,99537.76
2018-03-19T02:33:18.168Z,99533.69
2018-03-19T02:35:45.631Z,99535.39
2018-03-19T02:38:13.129Z,99537.59
2018-03-19T02:40:40.589Z,99529.98
2018-03-19T02:43:08.067Z,99532.56
2018-03-19T02:45:35.532Z,99535.67
2018-03-19T02:48:03.035Z,99531.69
2018-03-19T02:50:30.505Z,99532.73
2018-03-19T02:52:57.988Z,99531.81
2018-03-19T02:55:25.443Z,99532.23
2018-03-19T02:57:52.924Z,99526.41
2018-03-19T03:00:20.400Z,99532.02
2018-03-19T03:02:47.915Z,99536.63
2018-03-19T03:05:15.372Z,99538.74
2018-03-19T03:07:42.844Z,99544.36
2018-03-19T03:10:10.331Z,99544.23
2018-03-19T03:12:37.787Z,99541.06
2018-03-19T03:15:05.274Z,99543.14
2018-03-19T03:17:32.732Z,99541.30
2018-03-19T03:20:13.579Z,99539.38
2018-03-19T03:22:41.026Z,99543.39
2018-03-19T03:25:08.560Z,99546.89
2018-03-19T03:27:35.982Z,99540.57
2018-03-19T03:30:03.462Z,99541.26
2018-03-19T03:32:30.920Z,99549.59
2018-03-19T03:34:58.408Z,99547.23
2018-03-19T03:37:25.866Z,99556.09
2018-03-19T03:39:53.352Z,99553.41
2018-03-19T03:42:20.855Z,99559.80
2018-03-19T03:44:48.351Z,99550.82
2018-03-19T03:47:15.808Z,99554.22
2018-03-19T03:49:43.271Z,99547.67
2018-03-19T03:52:10.754Z,99554.78
2018-03-19T03:54:38.208Z,99551.54
2018-03-19T03:57:05.716Z,99557.53
2018-03-19T03:59:33.172Z,99552.34
2018-03-19T04:02:00.665Z,99555.83
2018-03-19T04:04:28.131Z,99559.02
2018-03-19T04:06:55.608Z,99566.28
2018-03-19T04:09:23.072Z,99560.16
2018-03-19T04:11:50.554Z,99561.12
2018-03-19T04:14:18.006Z,99556.87
2018-03-19T04:16:45.512Z,99561.47
2018-03-19T04:19:12.967Z,99558.75
2018-03-19T04:21:40.454Z,99560.03
2018-03-19T04:24:07.911Z,99563.66
2018-03-19T04:26:35.392Z,99562.38
2018-03-19T04:29:02.855Z,99560.07
2018-03-19T04:31:30.364Z,99564.11
2018-03-19T04:33:57.830Z,99561.14
2018-03-19T04:36:25.342Z,99565.47
2018-03-19T04:38:52.799Z,99565.97
2018-03-19T04:41:20.264Z,99561.34
2018-03-19T04:43:47.753Z,99559.14
2018-03-19T04:46:15.214Z,99561.78
2018-03-19T04:48:42.717Z,99558.70
2018-03-19T04:51:10.182Z,99563.02
2018-03-19T04:53:37.675Z,99559.55
2018-03-19T04:56:05.133Z,99562.80
2018-03-19T04:58:32.624Z,99562.08
2018-03-19T05:01:00.096Z,99566.60
2018-03-19T05:03:27.612Z,99567.70
2018-03-19T05:05:55.067Z,99567.98
2018-03-19T05:08:22.575Z,99575.08
2018-03-19T05:10:50.037Z,99570.95
2018-03-19T05:13:17.517Z,99570.78
2018-03-19T05:15:44.971Z,99573.81
2018-03-19T05:18:12.460Z,99571.56
2018-03-19T05:20:39.939Z,99582.85
2018-03-19T05:23:07.432Z,99569.73
2018-03-19T05:25:34.891Z,99580.04
2018-03-19T05:28:02.414Z,99581.21
2018-03-19T05:30:29.869Z,99584.48
2018-03-19T05:32:57.330Z,99581.95
2018-03-19T05:35:24.816Z,99586.00
2018-03-19T05:37:52.273Z,99595.84
2018-03-19T05:40:19.763Z,99588.09
2018-03-19T05:42:47.228Z,99589.35
2018-03-19T05:45:14.726Z,99591.61
2018-03-19T05:47:42.188Z,99595.65
2018-03-19T05:50:09.671Z,99593.77
2018-03-19T05:52:37.133Z,99597.74
2018-03-19T05:55:04.628Z,99595.88
2018-03-19T05:57:32.089Z,99598.09
2018-03-19T05:59:59.586Z,99596.58
2018-03-19T06:02:27.063Z,99598.33
2018-03-19T06:04:54.548Z,99597.95
2018-03-19T06:07:22.007Z,99600.22
2018-03-19T06:09:49.491Z,99603.27
2018-03-19T06:12:16.950Z,99614.27
2018-03-19T06:14:44.439Z,99612.31
2018-03-19T06:17:11.904Z,99618.05
2018-03-19T06:19:39.392Z,99614.41
2018-03-19T06:22:06.852Z,99609.64
2018-03-19T06:24:34.343Z,99613.92
2018-03-19T06:27:01.808Z,99619.04
2018-03-19T06:29:29.260Z,99618.83
2018-03-19T06:31:56.764Z,99623.80
2018-03-19T06:34:24.231Z,99633.23
2018-03-19T06:36:51.731Z,99633.06
2018-03-19T06:39:19.191Z,99633.08
2018-03-19T06:41:46.676Z,99638.60
2018-03-19T06:44:14.135Z,99634.78
2018-03-19T06:46:41.619Z,99636.86
2018-03-19T06:49:09.181Z,99643.87
2018-03-19T06:51:36.737Z,99638.69
2018-03-19T06:54:04.195Z,99645.45
2018-03-19T06:56:31.695Z,99638.93
2018-03-19T06:58:59.158Z,99648.61
2018-03-19T07:01:26.660Z,99647.74
2018-03-19T07:03:54.139Z,99649.14
2018-03-19T07:06:21.645Z,99649.11
2018-03-19T07:08:49.108Z,99652.78
2018-03-19T07:11:16.568Z,99652.22
2018-03-19T07:13:44.054Z,99659.11
2018-03-19T07:16:12.281Z,99654.98
2018-03-19T07:18:39.764Z,99662.87
2018-03-19T07:21:07.227Z,99665.17
2018-03-19T07:23:34.719Z,99665.86
2018-03-19T07:26:02.196Z,99657.33
2018-03-19T07:28:29.691Z,99659.22
2018-03-19T07:30:57.151Z,99663.68
2018-03-19T07:33:24.650Z,99665.28
2018-03-19T07:35:52.120Z,99672.23
2018-03-19T07:38:19.585Z,99661.67
2018-03-19T07:40:47.072Z,99671.86
2018-03-19T07:43:14.531Z,99673.03
2018-03-19T07:45:42.022Z,99675.86
2018-03-19T07:48:09.487Z,99680.33
2018-03-19T07:50:36.984Z,99679.50
2018-03-19T07:53:04.451Z,99674.45
2018-03-19T07:55:31.974Z,99669.27
2018-03-19T07:57:59.436Z,99663.97
2018-03-19T08:00:26.919Z,99670.45
2018-03-19T08:02:54.380Z,99664.22
2018-03-19T08:05:21.973Z,99673.81
2018-03-19T08:07:49.360Z,99674.78
2018-03-19T08:10:16.847Z,99664.50
2018-03-19T08:12:44.324Z,99669.16
2018-03-19T08:15:11.808Z,99671.49
2018-03-19T08:17:39.258Z,99669.25
2018-03-19T08:20:06.743Z,99673.87
2018-03-19T08:22:34.202Z,99668.53
2018-03-19T08:25:01.655Z,99676.44
2018-03-19T08:27:29.158Z,99675.86
2018-03-19T08:29:56.615Z,99667.81
2018-03-19T08:32:24.099Z,99668.52
2018-03-19T08:34:51.556Z,99675.06
2018-03-19T08:37:19.042Z,99670.01
2018-03-19T08:39:46.545Z,99663.56
2018-03-19T08:42:13.987Z,99672.28
2018-03-19T08:44:41.455Z,99667.30
2018-03-19T08:47:08.931Z,99672.39
2018-03-19T08:49:36.394Z,99666.58
2018-03-19T08:52:03.876Z,99677.53
2018-03-19T08:54:31.335Z,99669.86
2018-03-19T08:56:58.811Z,99675.48
2018-03-19T08:59:26.293Z,99670.66
2018-03-19T09:01:53.815Z,99677.56
2018-03-19T09:04:21.315Z,99680.02
2018-03-19T09:06:48.791Z,99679.92
2018-03-19T09:09:16.277Z,99677.34
2018-03-19T09:11:43.743Z,99682.88
2018-03-19T09:14:11.224Z,99684.98
2018-03-19T09:16:38.674Z,99685.05
2018-03-19T09:19:06.165Z,99682.80
2018-03-19T09:21:33.623Z,99685.56
2018-03-19T09:24:01.183Z,99681.22
2018-03-19T09:26:28.709Z,99692.58
2018-03-19T09:28:56.191Z,99689.95
2018-03-19T09:31:23.647Z,99694.61
2018-03-19T09:33:51.128Z,99698.38
2018-03-19T09:36:18.587Z,99697.11
2018-03-19T09:38:46.091Z,99695.97
2018-03-19T09:41:13.864Z,99694.94
2018-03-19T09:43:41.352Z,99694.41
2018-03-19T09:46:08.852Z,99704.92
2018-03-19T09:48:40.221Z,99704.21
2018-03-19T09:51:17.987Z,99712.28
2018-03-19T09:56:21.645Z,99709.16
2018-03-19T09:58:49.099Z,99715.58
2018-03-19T10:01:16.599Z,99717.75
2018-03-19T10:03:44.068Z,99714.50
2018-03-19T10:06:11.555Z,99719.16
2018-03-19T10:08:39.007Z,99722.78
2018-03-19T10:11:06.504Z,99714.04
2018-03-19T10:13:33.959Z,99716.11
2018-03-19T10:16:01.448Z,99714.25
2018-03-19T10:18:28.907Z,99718.34
2018-03-19T10:20:56.363Z,99730.59
2018-03-19T10:23:23.855Z,99734.48
2018-03-19T10:25:51.323Z,99733.05
2018-03-19T10:28:18.807Z,99738.71
2018-03-19T10:30:46.262Z,99743.02
2018-03-19T10:33:13.752Z,99744.58
2018-03-19T10:35:41.212Z,99743.73
2018-03-19T10:38:08.705Z,99745.29
2018-03-19T10:40:36.159Z,99750.73
2018-03-19T10:43:03.674Z,99752.27
2018-03-19T10:45:31.128Z,99751.02
2018-03-19T10:47:58.620Z,99752.89
2018-03-19T10:50:26.076Z,99756.48
2018-03-19T10:52:53.565Z,99749.34
2018-03-19T10:55:21.038Z,99748.97
2018-03-19T10:57:48.524Z,99744.94
2018-03-19T11:00:15.978Z,99740.48
2018-03-19T11:02:49.008Z,99738.41
2018-03-19T11:05:22.005Z,99741.28
2018-03-19T11:07:55.082Z,99744.16
2018-03-19T11:10:22.563Z,99738.45
2018-03-19T11:12:50.056Z,99738.48
2018-03-19T11:15:17.510Z,99745.11
2018-03-19T11:17:45.000Z,99736.79
2018-03-19T11:20:12.486Z,99739.23
2018-03-19T11:22:39.970Z,99743.04
2018-03-19T11:25:07.419Z,99733.31
2018-03-19T11:27:34.908Z,99736.31
2018-03-19T11:30:02.368Z,99738.89
2018-03-19T11:32:29.864Z,99736.45
2018-03-19T11:34:57.347Z,99734.66
2018-03-19T11:37:24.833Z,99744.17
2018-03-19T11:39:52.311Z,99739.84
2018-03-19T11:42:19.770Z,99736.71
2018-03-19T11:44:47.256Z,99731.28
2018-03-19T11:47:15.688Z,99737.14
2018-03-19T11:49:43.182Z,99732.20
2018-03-19T11:52:10.644Z,99741.55
2018-03-19T11:54:38.123Z,99742.87
2018-03-19T11:57:05.579Z,99742.11
2018-03-19T11:59:33.072Z,99739.09
2018-03-19T12:02:00.536Z,99739.52
2018-03-19T12:04:28.019Z,99743.90
2018-03-19T12:06:55.472Z,99744.21
2018-03-19T12:09:22.996Z,99739.25
2018-03-19T12:11:50.459Z,99735.84
2018-03-19T12:14:17.919Z,99733.64
2018-03-19T12:16:45.418Z,99727.11
2018-03-19T12:19:12.874Z,99727.89
2018-03-19T12:21:40.351Z,99718.40
2018-03-19T12:24:08.163Z,99716.10
2018-03-19T12:26:35.644Z,99707.55
2018-03-19T12:29:03.099Z,99709.33
2018-03-19T12:31:30.594Z,99710.56
2018-03-19T12:33:58.047Z,99707.13
2018-03-19T12:36:25.587Z,99704.21
2018-03-19T12:38:52.995Z,99698.11
2018-03-19T12:41:20.477Z,99696.32
2018-03-19T12:43:47.927Z,99697.50
2018-03-19T12:46:15.403Z,99693.39
2018-03-19T12:48:42.873Z,99694.53
2018-03-19T12:51:10.393Z,99689.59
2018-03-19T12:53:37.853Z,99684.70
2018-03-19T12:56:05.350Z,99682.35
2018-03-19T12:58:32.812Z,99677.50
2018-03-19T13:01:00.304Z,99676.18
2018-03-19T13:03:27.766Z,99671.72
2018-03-19T13:05:55.224Z,99676.84
2018-03-19T13:08:22.702Z,99677.27
2018-03-19T13:10:50.180Z,99676.84
2018-03-19T13:13:17.660Z,99679.30
2018-03-19T13:15:45.120Z,99678.66
2018-03-19T13:18:12.623Z,99679.47
2018-03-19T13:20:40.095Z,99681.23
2018-03-19T13:23:07.576Z,99679.59
2018-03-19T13:25:35.035Z,99678.28
2018-03-19T13:28:02.525Z,99680.63
2018-03-19T13:30:29.984Z,99688.90
2018-03-19T13:32:57.476Z,99695.59
2018-03-19T13:35:24.943Z,99687.61
2018-03-19T13:37:52.427Z,99681.41
2018-03-19T13:40:19.887Z,99681.03
2018-03-19T13:42:47.375Z,99683.72
2018-03-19T13:45:14.868Z,99682.55
2018-03-19T13:47:42.380Z,99682.53
2018-03-19T13:50:09.840Z,99681.94
2018-03-19T13:52:37.325Z,99681.86
2018-03-19T13:55:04.803Z,99674.61
2018-03-19T13:57:32.269Z,99671.27
2018-03-19T13:59:59.762Z,99670.62
2018-03-19T14:02:27.231Z,99671.51
2018-03-19T14:04:54.739Z,99666.56
2018-03-19T14:07:22.198Z,99673.03
2018-03-19T14:09:49.674Z,99672.75
2018-03-19T14:12:17.147Z,99666.30
2018-03-19T14:14:44.642Z,99661.70
2018-03-19T14:17:12.108Z,99664.77
2018-03-19T14:19:39.606Z,99659.91
2018-03-19T14:22:07.062Z,99661.27
2018-03-19T14:24:34.543Z,99652.89
2018-03-19T14:27:01.999Z,99651.50
2018-03-19T14:29:29.479Z,99650.68
2018-03-19T14:31:57.183Z,99643.76
2018-03-19T14:34:24.760Z,99646.52
2018-03-19T14:36:52.223Z,99644.15
2018-03-19T14:39:19.676Z,99640.30
2018-03-19T14:41:47.175Z,99632.35
2018-03-19T14:44:14.650Z,99631.03
2018-03-19T14:46:42.133Z,99628.51
2018-03-19T14:49:09.594Z,99625.77
2018-03-19T14:51:37.076Z,99630.04
2018-03-19T14:54:04.547Z,99629.20
2018-03-19T14:56:32.031Z,99627.36
2018-03-19T14:58:59.508Z,99629.42
2018-03-19T15:01:26.995Z,99621.23
2018-03-19T15:03:54.451Z,99621.51
2018-03-19T15:06:21.932Z,99622.64
2018-03-19T15:08:49.391Z,99617.56
2018-03-19T15:11:16.895Z,99620.56
2018-03-19T15:13:44.360Z,99613.83
2018-03-19T15:16:11.815Z,99611.80
2018-03-19T15:18:39.331Z,99603.22
2018-03-19T15:21:06.789Z,99609.33
2018-03-19T15:23:34.276Z,99611.62
2018-03-19T15:26:01.735Z,99605.41
2018-03-19T15:28:29.227Z,99609.70
2018-03-19T15:30:56.686Z,99605.55
2018-03-19T15:33:24.179Z,99604.77
2018-03-19T15:35:51.636Z,99601.91
2018-03-19T15:38:19.124Z,99607.02
2018-03-19T15:40:46.599Z,99605.83
2018-03-19T15:43:14.080Z,99598.31
2018-03-19T15:45:41.567Z,99604.53
2018-03-19T15:48:09.051Z,99605.45
2018-03-19T15:50:36.611Z,99597.87
2018-03-19T15:53:04.100Z,99596.00
2018-03-19T15:55:31.546Z,99599.01
2018-03-19T15:57:58.997Z,99606.06
2018-03-19T16:00:26.488Z,99603.76
2018-03-19T16:02:53.938Z,99602.61
2018-03-19T16:05:21.421Z,99611.52
2018-03-19T16:07:48.907Z,99612.68
2018-03-19T16:10:16.375Z,99616.45
2018-03-19T16:12:43.827Z,99620.39
2018-03-19T16:15:11.348Z,99615.77
2018-03-19T16:17:38.799Z,99612.87
2018-03-19T16:20:06.294Z,99620.59
2018-03-19T16:22:33.779Z,99621.30
2018-03-19T16:25:01.252Z,99610.93
2018-03-19T16:27:28.705Z,99617.38
2018-03-19T16:29:56.187Z,99620.44
2018-03-19T16:32:23.636Z,99621.96
2018-03-19T16:34:51.121Z,99629.42
2018-03-19T16:37:18.582Z,99630.58
2018-03-19T16:39:46.067Z,99634.45
2018-03-19T16:42:13.547Z,99641.39
2018-03-19T16:44:41.008Z,99643.17
2018-03-19T16:47:08.488Z,99645.70
2018-03-19T16:49:35.946Z,99650.81
2018-03-19T16:52:03.447Z,99651.55
2018-03-19T16:54:30.898Z,99647.99
2018-03-19T16:56:58.389Z,99653.16
2018-03-19T16:59:25.856Z,99656.11
2018-03-19T17:01:53.344Z,99652.67
2018-03-19T17:04:20.809Z,99661.79
2018-03-19T17:06:48.314Z,99662.45
2018-03-19T17:09:15.773Z,99667.41
2018-03-19T17:11:43.292Z,99675.14
2018-03-19T17:14:10.787Z,99677.48
2018-03-19T17:16:38.244Z,99678.74
2018-03-19T17:19:05.727Z,99682.70
2018-03-19T17:21:33.179Z,99677.52
2018-03-19T17:24:00.668Z,99684.66
2018-03-19T17:26:28.123Z,99694.78
2018-03-19T17:28:55.596Z,99698.25
2018-03-19T17:31:23.049Z,99695.20
2018-03-19T17:33:50.540Z,99711.03
2018-03-19T17:36:18.029Z,99712.52
2018-03-19T17:38:45.517Z,99718.73
2018-03-19T17:41:12.989Z,99723.84
2018-03-19T17:43:40.475Z,99718.16
2018-03-19T17:46:07.940Z,99725.62
2018-03-19T17:48:35.436Z,99719.21
2018-03-19T17:51:03.406Z,99730.41
2018-03-19T17:53:30.911Z,99733.64
2018-03-19T17:55:58.366Z,99734.61
2018-03-19T17:58:25.823Z,99748.20
2018-03-19T18:00:53.320Z,99750.82
2018-03-19T18:03:20.795Z,99762.41
2018-03-19T18:05:48.311Z,99765.31
2018-03-19T18:08:15.782Z,99766.18
2018-03-19T18:10:43.591Z,99766.95
2018-03-19T18:13:11.179Z,99767.17
2018-03-19T18:15:38.821Z,99783.77
2018-03-19T18:18:06.367Z,99782.02
2018-03-19T18:20:33.917Z,99786.19
2018-03-19T18:23:01.422Z,99787.13
2018-03-19T18:25:28.966Z,99787.05
2018-03-19T18:27:56.459Z,99795.50
2018-03-19T18:30:23.988Z,99798.93
2018-03-19T18:32:51.518Z,99804.38
2018-03-19T18:35:19.030Z,99809.41
2018-03-19T18:37:46.508Z,99815.09
2018-03-19T18:40:13.977Z,99818.59
2018-03-19T18:42:41.456Z,99830.02
2018-03-19T18:45:08.911Z,99831.03
2018-03-19T18:47:36.395Z,99844.42
2018-03-19T18:50:03.860Z,99844.93
2018-03-19T18:52:31.369Z,99843.99
2018-03-19T18:54:58.828Z,99860.23
2018-03-19T18:57:26.318Z,99858.09
2018-03-19T18:59:53.788Z,99859.22
2018-03-19T19:02:21.287Z,99862.59
2018-03-19T19:04:48.734Z,99875.86
2018-03-19T19:07:16.207Z,99876.97
2018-03-19T19:09:43.701Z,99877.30
2018-03-19T19:12:11.155Z,99883.55
2018-03-19T19:14:38.631Z,99888.98
2018-03-19T19:17:06.088Z,99888.16
2018-03-19T19:19:33.575Z,99893.94
2018-03-19T19:22:01.038Z,99891.94
2018-03-19T19:24:28.528Z,99892.95
2018-03-19T19:26:56.036Z,99899.34
2018-03-19T19:29:23.614Z,99899.23
2018-03-19T19:31:51.011Z,99905.46
2018-03-19T19:34:18.510Z,99905.77
2018-03-19T19:36:45.960Z,99917.14
2018-03-19T19:39:13.431Z,99918.27
2018-03-19T19:41:40.922Z,99922.75
2018-03-19T19:44:08.379Z,99927.67
2018-03-19T19:46:35.864Z,99924.14
2018-03-19T19:49:03.335Z,99930.94
2018-03-19T19:51:30.828Z,99940.05
2018-03-19T19:53:58.287Z,99945.09
2018-03-19T19:56:25.775Z,99953.03
2018-03-19T19:58:53.248Z,99951.78
2018-03-19T20:01:20.748Z,99956.08
2018-03-19T20:03:48.195Z,99958.67
2018-03-19T20:06:15.719Z,99955.30
2018-03-19T20:08:43.191Z,99960.30
2018-03-19T20:11:10.684Z,99960.59
2018-03-19T20:13:38.151Z,99963.97
2018-03-19T20:16:05.667Z,99975.61
2018-03-19T20:18:33.159Z,99972.40
2018-03-19T20:21:00.655Z,99970.02
2018-03-19T20:23:28.109Z,99973.43
2018-03-19T20:25:55.617Z,99981.91
2018-03-19T20:28:23.075Z,99981.48
2018-03-19T20:30:50.564Z,99987.86
2018-03-19T20:33:18.042Z,99982.19
2018-03-19T20:35:45.504Z,99976.68
2018-03-19T20:38:13.010Z,99991.27
2018-03-19T20:40:40.472Z,99988.50
2018-03-19T20:43:07.957Z,99989.92
2018-03-19T20:45:35.416Z,99995.55
2018-03-19T20:48:02.904Z,99991.59
2018-03-19T20:50:30.365Z,99994.79
2018-03-19T20:52:57.962Z,99998.49
2018-03-19T20:55:26.315Z,100009.36
2018-03-19T20:57:53.801Z,100014.86
2018-03-19T21:00:21.258Z,100013.67
2018-03-19T21:02:48.847Z,100010.06
2018-03-19T21:05:16.315Z,100016.45
2018-03-19T21:07:43.808Z,100022.27
2018-03-19T21:10:11.264Z,100016.17
2018-03-19T21:12:38.777Z,100021.15
2018-03-19T21:15:06.265Z,100025.20
2018-03-19T21:17:33.967Z,100023.03
2018-03-19T21:20:01.477Z,100034.06
2018-03-19T21:22:28.943Z,100031.19
2018-03-19T21:24:56.432Z,100032.30
2018-03-19T21:27:23.902Z,100043.74
2018-03-19T21:29:51.402Z,100046.46
2018-03-19T21:32:18.875Z,100053.84
2018-03-19T21:34:46.360Z,100056.59
2018-03-19T21:37:13.843Z,100055.52
2018-03-19T21:39:41.359Z,100057.61
2018-03-19T21:42:08.835Z,100054.56
2018-03-19T21:44:36.331Z,100060.45
2018-03-19T21:47:03.800Z,100056.58
2018-03-19T21:49:31.313Z,100064.34
2018-03-19T21:51:58.799Z,100059.23
2018-03-19T21:54:26.264Z,100056.77
2018-03-19T21:56:53.763Z,100058.24
2018-03-19T21:59:21.504Z,100064.70
2018-03-19T22:01:49.526Z,100062.16
2018-03-19T22:04:16.999Z,100064.18
2018-03-19T22:06:44.488Z,100071.01
2018-03-19T22:09:11.956Z,100073.73
2018-03-19T22:11:39.507Z,100073.45
2018-03-19T22:14:06.988Z,100075.75
2018-03-19T22:16:34.477Z,100075.52
2018-03-19T22:19:02.180Z,100072.83
2018-03-19T22:21:29.685Z,100063.42
2018-03-19T22:23:57.163Z,100067.70
2018-03-19T22:26:24.675Z,100070.34
2018-03-19T22:28:52.179Z,100069.06
2018-03-19T22:31:19.644Z,100068.37
2018-03-19T22:33:47.138Z,100065.59
2018-03-19T22:36:14.600Z,100068.29
2018-03-19T22:38:42.096Z,100074.19
2018-03-19T22:41:09.564Z,100079.19
2018-03-19T22:43:37.058Z,100074.46
2018-03-19T22:46:04.535Z,100068.89
2018-03-19T22:48:32.036Z,100072.56
2018-03-19T22:50:59.503Z,100063.95
2018-03-19T22:53:26.999Z,100070.67
2018-03-19T22:55:54.465Z,100073.27
2018-03-19T22:58:21.956Z,100071.14
2018-03-19T23:00:49.418Z,100068.05
2018-03-19T23:03:16.935Z,100075.45
2018-03-19T23:05:44.399Z,100075.45
2018-03-19T23:08:11.861Z,100087.56
2018-03-19T23:10:39.353Z,100079.36
2018-03-19T23:13:06.810Z,100077.99
2018-03-19T23:15:34.303Z,100085.05
2018-03-19T23:18:01.760Z,100074.52
2018-03-19T23:20:29.353Z,100083.30
2018-03-19T23:22:56.818Z,100082.06
2018-03-19T23:25:24.308Z,100081.02
2018-03-19T23:27:51.788Z,100091.16
2018-03-19T23:30:19.327Z,100092.04
2018-03-19T23:32:46.792Z,100092.39
2018-03-19T23:35:14.288Z,100091.13
2018-03-19T23:37:41.768Z,100087.43
2018-03-19T23:40:09.281Z,100093.02
2018-03-19T23:42:36.759Z,100099.80
2018-03-19T23:45:04.280Z,100097.21
2018-03-19T23:47:31.763Z,100097.08
2018-03-19T23:49:59.223Z,100097.09
2018-03-19T23:52:26.723Z,100095.88
2018-03-19T23:54:54.198Z,100096.33
2018-03-19T23:57:21.692Z,100096.80
2018-03-19T23:59:49.149Z,100096.04
